createdAt,value
2023-04-20T00:00:35.317Z,55.65
2023-04-20T00:05:37.600Z,56.49
2023-04-20T00:10:39.069Z,54.90
2023-04-20T00:15:40.561Z,54.45
2023-04-20T00:20:42.199Z,54.07
2023-04-20T00:25:43.670Z,53.19
2023-04-20T00:30:45.170Z,53.85
2023-04-20T00:35:46.680Z,53.27
2023-04-20T00:40:53.004Z,53.87
2023-04-20T00:45:54.637Z,54.36
2023-04-20T00:50:56.109Z,53.33
2023-04-20T00:55:57.606Z,51.50
2023-04-20T01:00:59.099Z,51.64
2023-04-20T01:06:01.946Z,49.56
2023-04-20T01:11:03.431Z,52.31
2023-04-20T01:16:05.026Z,50.83
2023-04-20T01:21:06.534Z,52.06
2023-04-20T01:26:08.882Z,53.09
2023-04-20T01:31:10.611Z,56.19
2023-04-20T01:36:12.519Z,55.72
2023-04-20T01:41:13.980Z,53.35
2023-04-20T01:46:15.508Z,50.12
2023-04-20T01:51:17.008Z,50.06
2023-04-20T01:56:18.470Z,50.68
2023-04-20T02:01:20.021Z,52.02
2023-04-20T02:06:21.527Z,51.04
2023-04-20T02:11:22.999Z,49.49
2023-04-20T02:16:24.734Z,50.06
2023-04-20T02:21:26.318Z,49.63
2023-04-20T02:26:27.797Z,49.46
2023-04-20T02:31:29.302Z,50.33
2023-04-20T02:36:30.873Z,50.41
2023-04-20T02:41:32.589Z,49.74
2023-04-20T02:46:34.094Z,46.92
2023-04-20T02:51:35.661Z,48.45
2023-04-20T02:56:37.392Z,49.04
2023-04-20T03:01:39.011Z,49.42
2023-04-20T03:06:40.622Z,47.04
2023-04-20T03:11:42.092Z,47.96
2023-04-20T03:16:43.767Z,47.14
2023-04-20T03:21:45.406Z,48.75
2023-04-20T03:26:46.862Z,46.66
2023-04-20T03:31:48.417Z,47.75
2023-04-20T03:36:49.896Z,48.73
2023-04-20T03:41:51.374Z,48.83
2023-04-20T03:46:52.832Z,48.21
2023-04-20T03:51:54.321Z,47.14
2023-04-20T03:56:55.822Z,48.55
2023-04-20T04:01:58.334Z,48.53
2023-04-20T04:06:59.855Z,50.18
2023-04-20T04:12:01.392Z,48.87
2023-04-20T04:17:02.969Z,50.00
2023-04-20T04:22:04.484Z,49.01
2023-04-20T04:27:06.052Z,47.49
2023-04-20T04:32:08.080Z,49.82
2023-04-20T04:37:09.667Z,51.44
2023-04-20T04:42:11.253Z,49.96
2023-04-20T04:47:12.824Z,51.80
2023-04-20T04:52:14.629Z,48.97
2023-04-20T04:57:16.162Z,49.44
2023-04-20T05:02:17.770Z,51.56
2023-04-20T05:07:19.352Z,52.11
2023-04-20T05:12:20.820Z,52.62
2023-04-20T05:17:22.333Z,50.50
2023-04-20T05:22:23.819Z,52.18
2023-04-20T05:27:25.311Z,52.48
2023-04-20T05:32:26.787Z,52.20
2023-04-20T05:37:28.293Z,51.86
2023-04-20T05:42:29.897Z,50.26
2023-04-20T05:47:31.470Z,49.81
2023-04-20T05:52:33.393Z,49.77
2023-04-20T05:57:34.909Z,49.89
2023-04-20T06:02:36.928Z,50.62
2023-04-20T06:07:38.518Z,51.88
2023-04-20T06:12:40.076Z,51.83
2023-04-20T06:17:41.729Z,51.35
2023-04-20T06:22:44.483Z,51.95
2023-04-20T06:27:46.608Z,51.37
2023-04-20T06:32:48.116Z,52.61
2023-04-20T06:37:49.694Z,51.33
2023-04-20T06:42:51.149Z,52.42
2023-04-20T06:47:52.631Z,51.29
2023-04-20T06:52:54.074Z,52.50
2023-04-20T06:57:55.546Z,50.49
2023-04-20T07:02:57.275Z,49.12
2023-04-20T07:07:58.841Z,48.55
2023-04-20T07:13:00.487Z,47.35
2023-04-20T07:18:02.096Z,48.30
2023-04-20T07:23:03.801Z,47.96
2023-04-20T07:28:05.308Z,47.63
2023-04-20T07:33:07.357Z,46.92
2023-04-20T07:38:08.917Z,46.57
2023-04-20T07:43:10.432Z,45.03
2023-04-20T07:48:13.007Z,49.01
2023-04-20T07:53:14.538Z,47.83
2023-04-20T07:58:17.395Z,45.83
2023-04-20T08:03:19.211Z,45.74
2023-04-20T08:08:20.798Z,45.66
2023-04-20T08:13:22.250Z,44.85
2023-04-20T08:18:23.861Z,47.62
2023-04-20T08:23:27.989Z,47.42
2023-04-20T08:28:33.374Z,49.18
2023-04-20T08:33:35.104Z,50.15
2023-04-20T08:38:36.573Z,48.63
2023-04-20T08:43:38.041Z,48.18
2023-04-20T08:48:39.505Z,48.07
2023-04-20T08:53:40.974Z,46.15
2023-04-20T08:58:42.434Z,48.41
2023-04-20T09:03:44.450Z,47.44
2023-04-20T09:08:46.434Z,48.39
2023-04-20T09:14:06.453Z,47.95
2023-04-20T09:19:09.476Z,47.11
2023-04-20T09:24:11.415Z,44.99
2023-04-20T09:29:19.821Z,45.01
2023-04-20T09:34:21.451Z,45.80
2023-04-20T09:39:23.918Z,45.24
2023-04-20T09:44:25.383Z,45.69
2023-04-20T09:49:26.843Z,45.15
2023-04-20T09:54:29.592Z,44.81
2023-04-20T09:59:32.882Z,45.44
2023-04-20T10:04:34.711Z,45.29
2023-04-20T10:09:37.729Z,46.31
2023-04-20T10:14:39.054Z,47.21
2023-04-20T10:19:44.331Z,48.45
2023-04-20T10:24:46.095Z,48.16
2023-04-20T10:29:48.369Z,47.48
2023-04-20T10:35:03.412Z,47.66
2023-04-20T10:40:07.715Z,48.84
2023-04-20T10:45:10.791Z,48.27
2023-04-20T10:50:13.610Z,48.35
2023-04-20T10:55:19.751Z,47.91
2023-04-20T11:00:22.930Z,47.03
2023-04-20T11:05:27.897Z,48.26
2023-04-20T11:10:39.730Z,50.96
2023-04-20T11:15:41.206Z,49.11
2023-04-20T11:20:54.787Z,48.98
2023-04-20T11:25:56.621Z,48.79
2023-04-20T11:30:58.084Z,48.74
2023-04-20T11:35:59.853Z,52.65
2023-04-20T11:41:07.799Z,51.34
2023-04-20T11:46:16.886Z,50.39
2023-04-20T11:51:18.436Z,49.45
2023-04-20T11:56:19.930Z,48.19
2023-04-20T12:01:21.494Z,47.68
2023-04-20T12:06:22.993Z,48.91
2023-04-20T12:11:24.776Z,49.08
2023-04-20T12:16:26.468Z,50.16
2023-04-20T12:21:28.034Z,52.15
2023-04-20T12:26:37.990Z,53.54
2023-04-20T12:31:40.555Z,53.77
2023-04-20T12:36:42.171Z,54.47
2023-04-20T12:41:43.654Z,55.04
2023-04-20T12:46:45.451Z,54.89
2023-04-20T12:51:47.062Z,54.45
2023-04-20T12:56:48.527Z,55.20
2023-04-20T13:01:50.191Z,54.99
2023-04-20T13:06:51.891Z,54.07
2023-04-20T13:11:53.732Z,53.99
2023-04-20T13:16:55.584Z,52.99
2023-04-20T13:21:57.558Z,52.88
2023-04-20T13:26:59.036Z,54.21
2023-04-20T13:32:00.648Z,53.16
2023-04-20T13:37:02.259Z,52.61
2023-04-20T13:42:03.790Z,52.78
2023-04-20T13:47:05.359Z,52.00
2023-04-20T13:52:06.897Z,51.16
2023-04-20T13:57:08.913Z,51.51
2023-04-20T14:02:10.924Z,51.59
2023-04-20T14:07:12.417Z,50.14
2023-04-20T14:12:13.951Z,49.76
2023-04-20T14:17:17.833Z,48.96
2023-04-20T14:22:19.291Z,49.34
2023-04-20T14:27:20.760Z,48.50
2023-04-20T14:32:22.269Z,47.96
2023-04-20T14:37:24.974Z,47.71
2023-04-20T14:42:26.445Z,46.87
2023-04-20T14:47:28.992Z,45.89
2023-04-20T14:52:30.510Z,46.67
2023-04-20T14:57:31.986Z,46.56
2023-04-20T15:02:33.904Z,46.02
2023-04-20T15:07:35.590Z,46.31
2023-04-20T15:12:37.061Z,45.17
2023-04-20T15:17:38.616Z,45.75
2023-04-20T15:22:40.188Z,45.33
2023-04-20T15:27:41.689Z,45.40
2023-04-20T15:32:43.169Z,44.84
2023-04-20T15:37:45.322Z,45.08
2023-04-20T15:42:46.819Z,45.15
2023-04-20T15:47:48.320Z,45.09
2023-04-20T15:52:51.998Z,45.13
2023-04-20T15:57:57.116Z,44.78
2023-04-20T16:03:01.396Z,45.94
2023-04-20T16:08:03.200Z,47.27
2023-04-20T16:13:04.911Z,45.93
2023-04-20T16:18:06.446Z,47.03
2023-04-20T16:23:07.957Z,50.86
2023-04-20T16:28:09.503Z,50.02
2023-04-20T16:33:11.059Z,50.90
2023-04-20T16:38:12.576Z,49.66
2023-04-20T16:43:14.037Z,50.78
2023-04-20T16:48:15.511Z,52.52
2023-04-20T16:53:17.072Z,53.32
2023-04-20T16:58:18.561Z,55.50
2023-04-20T17:03:20.220Z,55.49
2023-04-20T17:08:21.954Z,55.25
2023-04-20T17:13:23.433Z,53.90
2023-04-20T17:18:24.959Z,53.74
2023-04-20T17:23:26.551Z,53.63
2023-04-20T17:28:28.029Z,53.12
2023-04-20T17:33:29.520Z,52.54
2023-04-20T17:38:31.077Z,52.95
2023-04-20T17:43:32.572Z,54.64
2023-04-20T17:48:34.169Z,53.48
2023-04-20T17:53:35.633Z,53.14
2023-04-20T17:58:37.127Z,53.39
2023-04-20T18:03:39.549Z,53.29
2023-04-20T18:08:41.235Z,52.56
2023-04-20T18:13:44.585Z,52.28
2023-04-20T18:18:46.101Z,51.40
2023-04-20T18:23:47.801Z,51.81
2023-04-20T18:28:49.291Z,51.10
2023-04-20T18:33:50.762Z,49.46
2023-04-20T18:38:53.108Z,48.45
2023-04-20T18:43:56.278Z,47.29
2023-04-20T18:48:57.806Z,47.57
2023-04-20T18:53:59.354Z,49.83
2023-04-20T18:59:01.485Z,50.27
2023-04-20T19:04:03.078Z,51.32
2023-04-20T19:09:07.290Z,49.29
2023-04-20T19:14:10.062Z,49.89
2023-04-20T19:19:11.891Z,49.78
2023-04-20T19:24:13.374Z,50.53
2023-04-20T19:29:14.841Z,49.76
2023-04-20T19:34:16.520Z,50.64
2023-04-20T19:39:18.171Z,49.70
2023-04-20T19:44:19.863Z,51.87
2023-04-20T19:49:21.592Z,52.49
2023-04-20T19:54:23.125Z,53.55
2023-04-20T19:59:24.607Z,51.92
2023-04-20T20:04:26.785Z,54.03
2023-04-20T20:09:28.513Z,53.69
2023-04-20T20:14:31.057Z,52.32
2023-04-20T20:19:32.540Z,51.90
2023-04-20T20:24:34.003Z,50.29
2023-04-20T20:29:35.561Z,50.07
2023-04-20T20:34:37.015Z,49.44
2023-04-20T20:39:38.519Z,49.04
2023-04-20T20:44:40.009Z,48.72
2023-04-20T20:49:41.537Z,51.29
2023-04-20T20:54:43.064Z,51.53
2023-04-20T20:59:44.580Z,51.14
2023-04-20T21:04:46.046Z,53.07
2023-04-20T21:09:47.519Z,50.67
2023-04-20T21:14:51.285Z,50.21
2023-04-20T21:19:52.795Z,49.56
2023-04-20T21:24:54.258Z,48.10
2023-04-20T21:29:55.771Z,47.68
2023-04-20T21:34:57.263Z,47.20
2023-04-20T21:39:58.744Z,48.00
2023-04-20T21:45:00.206Z,48.41
2023-04-20T21:50:01.674Z,48.61
2023-04-20T21:55:03.171Z,49.54
2023-04-20T22:00:04.849Z,52.78
2023-04-20T22:05:08.550Z,53.49
2023-04-20T22:10:10.068Z,54.38
2023-04-20T22:15:13.404Z,54.74
2023-04-20T22:20:15.483Z,54.63
2023-04-20T22:25:16.962Z,55.18
2023-04-20T22:30:18.444Z,54.20
2023-04-20T22:35:19.909Z,53.94
2023-04-20T22:40:21.369Z,53.18
2023-04-20T22:45:22.847Z,52.46
2023-04-20T22:50:24.424Z,53.37
2023-04-20T22:55:25.920Z,52.31
2023-04-20T23:00:27.401Z,51.65
2023-04-20T23:05:28.968Z,51.49
2023-04-20T23:10:30.457Z,49.18
2023-04-20T23:15:31.944Z,49.25
2023-04-20T23:20:33.680Z,54.24
2023-04-20T23:25:35.251Z,52.10
2023-04-20T23:30:36.741Z,51.15
2023-04-20T23:35:38.231Z,51.40
2023-04-20T23:40:39.799Z,50.71
2023-04-20T23:45:41.306Z,49.38
2023-04-20T23:50:42.808Z,49.99
2023-04-20T23:55:48.153Z,50.24
